sensor_id;sensor_type;location;lat;lon;timestamp;P1;durP1;ratioP1;P2;durP2;ratioP2
47589;SDS011;33316;52.298;9.056;2023-06-14T00:00:04;2.28;;;1.17;;
47589;SDS011;33316;52.298;9.056;2023-06-14T00:02:32;1.97;;;1.13;;
47589;SDS011;33316;52.298;9.056;2023-06-14T00:04:59;4.10;;;1.30;;
47589;SDS011;33316;52.298;9.056;2023-06-14T00:07:33;3.53;;;1.30;;
47589;SDS011;33316;52.298;9.056;2023-06-14T00:10:01;1.83;;;1.30;;
47589;SDS011;33316;52.298;9.056;2023-06-14T00:12:29;3.45;;;1.00;;
47589;SDS011;33316;52.298;9.056;2023-06-14T00:14:56;2.42;;;1.15;;
47589;SDS011;33316;52.298;9.056;2023-06-14T00:17:24;3.58;;;1.25;;
47589;SDS011;33316;52.298;9.056;2023-06-14T00:19:55;4.13;;;1.25;;
47589;SDS011;33316;52.298;9.056;2023-06-14T00:22:22;2.58;;;1.05;;
47589;SDS011;33316;52.298;9.056;2023-06-14T00:24:50;1.40;;;0.90;;
47589;SDS011;33316;52.298;9.056;2023-06-14T00:27:17;2.53;;;1.17;;
47589;SDS011;33316;52.298;9.056;2023-06-14T00:29:43;2.17;;;1.25;;
47589;SDS011;33316;52.298;9.056;2023-06-14T00:32:10;2.30;;;1.00;;
47589;SDS011;33316;52.298;9.056;2023-06-14T00:34:38;2.55;;;1.20;;
47589;SDS011;33316;52.298;9.056;2023-06-14T00:37:05;2.13;;;1.30;;
47589;SDS011;33316;52.298;9.056;2023-06-14T00:39:32;1.55;;;1.17;;
47589;SDS011;33316;52.298;9.056;2023-06-14T00:41:58;3.53;;;1.25;;
47589;SDS011;33316;52.298;9.056;2023-06-14T00:44:25;2.42;;;1.00;;
47589;SDS011;33316;52.298;9.056;2023-06-14T00:46:52;3.55;;;1.10;;
47589;SDS011;33316;52.298;9.056;2023-06-14T00:49:18;3.42;;;1.10;;
47589;SDS011;33316;52.298;9.056;2023-06-14T00:51:47;2.35;;;1.30;;
47589;SDS011;33316;52.298;9.056;2023-06-14T00:54:14;2.40;;;1.05;;
47589;SDS011;33316;52.298;9.056;2023-06-14T00:56:40;2.47;;;1.00;;
47589;SDS011;33316;52.298;9.056;2023-06-14T00:59:09;1.83;;;1.40;;
47589;SDS011;33316;52.298;9.056;2023-06-14T01:01:36;1.98;;;1.02;;
47589;SDS011;33316;52.298;9.056;2023-06-14T01:04:03;1.98;;;1.00;;
47589;SDS011;33316;52.298;9.056;2023-06-14T01:06:31;2.55;;;1.08;;
47589;SDS011;33316;52.298;9.056;2023-06-14T01:09:06;3.23;;;1.13;;
47589;SDS011;33316;52.298;9.056;2023-06-14T01:11:44;1.40;;;1.13;;
47589;SDS011;33316;52.298;9.056;2023-06-14T01:14:17;4.88;;;1.33;;
47589;SDS011;33316;52.298;9.056;2023-06-14T01:16:45;2.55;;;1.20;;
47589;SDS011;33316;52.298;9.056;2023-06-14T01:19:12;3.35;;;1.48;;
47589;SDS011;33316;52.298;9.056;2023-06-14T01:21:42;3.53;;;1.45;;
47589;SDS011;33316;52.298;9.056;2023-06-14T01:24:10;3.15;;;1.50;;
47589;SDS011;33316;52.298;9.056;2023-06-14T01:26:37;2.08;;;1.38;;
47589;SDS011;33316;52.298;9.056;2023-06-14T01:29:10;2.35;;;1.42;;
47589;SDS011;33316;52.298;9.056;2023-06-14T01:31:42;2.35;;;1.38;;
47589;SDS011;33316;52.298;9.056;2023-06-14T01:34:10;2.53;;;1.58;;
47589;SDS011;33316;52.298;9.056;2023-06-14T01:36:37;2.15;;;1.20;;
47589;SDS011;33316;52.298;9.056;2023-06-14T01:39:07;1.98;;;1.20;;
47589;SDS011;33316;52.298;9.056;2023-06-14T01:41:36;2.13;;;1.40;;
47589;SDS011;33316;52.298;9.056;2023-06-14T01:44:03;3.22;;;1.40;;
47589;SDS011;33316;52.298;9.056;2023-06-14T01:46:31;2.65;;;1.50;;
47589;SDS011;33316;52.298;9.056;2023-06-14T01:48:58;3.65;;;2.00;;
47589;SDS011;33316;52.298;9.056;2023-06-14T01:51:25;3.97;;;1.50;;
47589;SDS011;33316;52.298;9.056;2023-06-14T01:53:51;3.40;;;1.52;;
47589;SDS011;33316;52.298;9.056;2023-06-14T01:56:19;1.90;;;1.55;;
47589;SDS011;33316;52.298;9.056;2023-06-14T01:58:46;2.25;;;1.45;;
47589;SDS011;33316;52.298;9.056;2023-06-14T02:01:13;2.35;;;1.58;;
47589;SDS011;33316;52.298;9.056;2023-06-14T02:03:41;3.90;;;1.55;;
47589;SDS011;33316;52.298;9.056;2023-06-14T02:06:09;5.50;;;1.33;;
47589;SDS011;33316;52.298;9.056;2023-06-14T02:08:37;3.42;;;1.65;;
47589;SDS011;33316;52.298;9.056;2023-06-14T02:11:04;1.88;;;1.25;;
47589;SDS011;33316;52.298;9.056;2023-06-14T02:13:32;5.20;;;1.73;;
47589;SDS011;33316;52.298;9.056;2023-06-14T02:15:59;2.10;;;1.27;;
47589;SDS011;33316;52.298;9.056;2023-06-14T02:18:26;3.33;;;1.65;;
47589;SDS011;33316;52.298;9.056;2023-06-14T02:20:53;3.97;;;1.88;;
47589;SDS011;33316;52.298;9.056;2023-06-14T02:23:20;3.42;;;1.48;;
47589;SDS011;33316;52.298;9.056;2023-06-14T02:25:46;3.40;;;1.45;;
47589;SDS011;33316;52.298;9.056;2023-06-14T02:28:13;1.98;;;1.17;;
47589;SDS011;33316;52.298;9.056;2023-06-14T02:30:41;3.28;;;1.70;;
47589;SDS011;33316;52.298;9.056;2023-06-14T02:33:08;3.70;;;1.55;;
47589;SDS011;33316;52.298;9.056;2023-06-14T02:35:37;3.10;;;1.80;;
47589;SDS011;33316;52.298;9.056;2023-06-14T02:38:04;6.82;;;2.15;;
47589;SDS011;33316;52.298;9.056;2023-06-14T02:40:33;4.18;;;2.00;;
47589;SDS011;33316;52.298;9.056;2023-06-14T02:43:00;4.30;;;1.50;;
47589;SDS011;33316;52.298;9.056;2023-06-14T02:45:27;4.25;;;1.60;;
47589;SDS011;33316;52.298;9.056;2023-06-14T02:47:55;2.65;;;1.50;;
47589;SDS011;33316;52.298;9.056;2023-06-14T02:50:21;3.78;;;1.50;;
47589;SDS011;33316;52.298;9.056;2023-06-14T02:52:48;3.45;;;1.42;;
47589;SDS011;33316;52.298;9.056;2023-06-14T02:55:15;3.35;;;1.90;;
47589;SDS011;33316;52.298;9.056;2023-06-14T02:57:42;3.35;;;1.88;;
47589;SDS011;33316;52.298;9.056;2023-06-14T03:00:09;4.13;;;2.00;;
47589;SDS011;33316;52.298;9.056;2023-06-14T03:02:38;2.95;;;1.90;;
47589;SDS011;33316;52.298;9.056;2023-06-14T03:05:06;2.65;;;1.70;;
47589;SDS011;33316;52.298;9.056;2023-06-14T03:07:34;5.25;;;1.80;;
47589;SDS011;33316;52.298;9.056;2023-06-14T03:12:34;5.10;;;1.58;;
47589;SDS011;33316;52.298;9.056;2023-06-14T03:15:03;2.47;;;1.75;;
47589;SDS011;33316;52.298;9.056;2023-06-14T03:17:31;3.17;;;1.45;;
47589;SDS011;33316;52.298;9.056;2023-06-14T03:19:58;2.85;;;1.83;;
47589;SDS011;33316;52.298;9.056;2023-06-14T03:22:26;3.72;;;1.70;;
47589;SDS011;33316;52.298;9.056;2023-06-14T03:24:53;2.80;;;1.75;;
47589;SDS011;33316;52.298;9.056;2023-06-14T03:27:20;2.58;;;1.90;;
47589;SDS011;33316;52.298;9.056;2023-06-14T03:29:47;3.55;;;1.70;;
47589;SDS011;33316;52.298;9.056;2023-06-14T03:32:13;4.10;;;1.90;;
47589;SDS011;33316;52.298;9.056;2023-06-14T03:34:40;2.47;;;1.70;;
47589;SDS011;33316;52.298;9.056;2023-06-14T03:37:07;4.05;;;1.63;;
47589;SDS011;33316;52.298;9.056;2023-06-14T03:39:35;2.13;;;1.58;;
47589;SDS011;33316;52.298;9.056;2023-06-14T03:42:02;3.13;;;1.75;;
47589;SDS011;33316;52.298;9.056;2023-06-14T03:44:30;2.35;;;1.70;;
47589;SDS011;33316;52.298;9.056;2023-06-14T03:46:56;3.28;;;1.63;;
47589;SDS011;33316;52.298;9.056;2023-06-14T03:49:23;5.05;;;1.70;;
47589;SDS011;33316;52.298;9.056;2023-06-14T03:51:50;5.47;;;1.90;;
47589;SDS011;33316;52.298;9.056;2023-06-14T03:54:17;3.17;;;1.83;;
47589;SDS011;33316;52.298;9.056;2023-06-14T03:56:45;3.15;;;2.00;;
47589;SDS011;33316;52.298;9.056;2023-06-14T03:59:12;5.15;;;1.70;;
47589;SDS011;33316;52.298;9.056;2023-06-14T04:01:38;4.78;;;1.95;;
47589;SDS011;33316;52.298;9.056;2023-06-14T04:04:10;3.38;;;1.70;;
47589;SDS011;33316;52.298;9.056;2023-06-14T04:06:37;3.72;;;1.83;;
47589;SDS011;33316;52.298;9.056;2023-06-14T04:09:06;3.53;;;1.90;;
47589;SDS011;33316;52.298;9.056;2023-06-14T04:11:32;4.00;;;2.13;;
47589;SDS011;33316;52.298;9.056;2023-06-14T04:14:01;3.85;;;2.13;;
47589;SDS011;33316;52.298;9.056;2023-06-14T04:16:28;3.03;;;1.55;;
47589;SDS011;33316;52.298;9.056;2023-06-14T04:18:54;4.38;;;1.95;;
47589;SDS011;33316;52.298;9.056;2023-06-14T04:21:23;2.72;;;2.00;;
47589;SDS011;33316;52.298;9.056;2023-06-14T04:23:50;4.80;;;2.10;;
47589;SDS011;33316;52.298;9.056;2023-06-14T04:26:20;3.03;;;1.83;;
47589;SDS011;33316;52.298;9.056;2023-06-14T04:28:48;4.13;;;2.10;;
47589;SDS011;33316;52.298;9.056;2023-06-14T04:31:17;3.45;;;1.80;;
47589;SDS011;33316;52.298;9.056;2023-06-14T04:33:44;3.05;;;2.05;;
47589;SDS011;33316;52.298;9.056;2023-06-14T04:36:11;2.55;;;1.98;;
47589;SDS011;33316;52.298;9.056;2023-06-14T04:38:38;4.03;;;2.20;;
47589;SDS011;33316;52.298;9.056;2023-06-14T04:41:06;6.50;;;1.98;;
47589;SDS011;33316;52.298;9.056;2023-06-14T04:43:36;3.63;;;2.13;;
47589;SDS011;33316;52.298;9.056;2023-06-14T04:46:04;3.85;;;1.92;;
47589;SDS011;33316;52.298;9.056;2023-06-14T04:48:37;2.40;;;1.80;;
47589;SDS011;33316;52.298;9.056;2023-06-14T04:51:05;2.10;;;1.52;;
47589;SDS011;33316;52.298;9.056;2023-06-14T04:53:32;2.92;;;1.67;;
47589;SDS011;33316;52.298;9.056;2023-06-14T04:55:59;2.78;;;2.03;;
47589;SDS011;33316;52.298;9.056;2023-06-14T04:58:26;3.47;;;2.03;;
47589;SDS011;33316;52.298;9.056;2023-06-14T05:00:53;3.17;;;2.08;;
47589;SDS011;33316;52.298;9.056;2023-06-14T05:03:20;2.85;;;2.00;;
47589;SDS011;33316;52.298;9.056;2023-06-14T05:05:50;5.53;;;2.00;;
47589;SDS011;33316;52.298;9.056;2023-06-14T05:08:18;4.47;;;2.05;;
47589;SDS011;33316;52.298;9.056;2023-06-14T05:10:45;2.47;;;1.52;;
47589;SDS011;33316;52.298;9.056;2023-06-14T05:13:12;4.03;;;1.83;;
47589;SDS011;33316;52.298;9.056;2023-06-14T05:15:39;4.05;;;1.80;;
47589;SDS011;33316;52.298;9.056;2023-06-14T05:18:05;2.60;;;1.67;;
47589;SDS011;33316;52.298;9.056;2023-06-14T05:20:33;2.63;;;1.80;;
47589;SDS011;33316;52.298;9.056;2023-06-14T05:23:03;4.13;;;1.83;;
47589;SDS011;33316;52.298;9.056;2023-06-14T05:25:30;3.20;;;1.60;;
47589;SDS011;33316;52.298;9.056;2023-06-14T05:27:56;2.67;;;1.80;;
47589;SDS011;33316;52.298;9.056;2023-06-14T05:30:23;3.17;;;1.92;;
47589;SDS011;33316;52.298;9.056;2023-06-14T05:32:50;2.90;;;1.55;;
47589;SDS011;33316;52.298;9.056;2023-06-14T05:35:17;4.07;;;2.20;;
47589;SDS011;33316;52.298;9.056;2023-06-14T05:37:44;4.38;;;1.98;;
47589;SDS011;33316;52.298;9.056;2023-06-14T05:40:13;2.58;;;1.60;;
47589;SDS011;33316;52.298;9.056;2023-06-14T05:42:42;2.95;;;1.90;;
47589;SDS011;33316;52.298;9.056;2023-06-14T05:45:08;4.80;;;1.80;;
47589;SDS011;33316;52.298;9.056;2023-06-14T05:47:35;2.88;;;1.50;;
47589;SDS011;33316;52.298;9.056;2023-06-14T05:50:02;2.60;;;1.67;;
47589;SDS011;33316;52.298;9.056;2023-06-14T05:52:31;3.15;;;1.60;;
47589;SDS011;33316;52.298;9.056;2023-06-14T05:54:57;3.10;;;1.70;;
47589;SDS011;33316;52.298;9.056;2023-06-14T05:57:27;4.97;;;1.83;;
47589;SDS011;33316;52.298;9.056;2023-06-14T05:59:54;5.38;;;1.65;;
47589;SDS011;33316;52.298;9.056;2023-06-14T06:02:21;4.68;;;1.45;;
47589;SDS011;33316;52.298;9.056;2023-06-14T06:04:47;1.70;;;1.10;;
47589;SDS011;33316;52.298;9.056;2023-06-14T06:07:14;2.85;;;1.27;;
47589;SDS011;33316;52.298;9.056;2023-06-14T06:09:41;3.95;;;1.60;;
47589;SDS011;33316;52.298;9.056;2023-06-14T06:12:08;3.10;;;1.50;;
47589;SDS011;33316;52.298;9.056;2023-06-14T06:14:36;1.48;;;1.10;;
47589;SDS011;33316;52.298;9.056;2023-06-14T06:17:03;4.80;;;1.40;;
47589;SDS011;33316;52.298;9.056;2023-06-14T06:19:30;2.70;;;1.10;;
47589;SDS011;33316;52.298;9.056;2023-06-14T06:21:57;3.72;;;1.30;;
47589;SDS011;33316;52.298;9.056;2023-06-14T06:24:24;1.45;;;1.08;;
47589;SDS011;33316;52.298;9.056;2023-06-14T06:26:50;3.55;;;0.93;;
47589;SDS011;33316;52.298;9.056;2023-06-14T06:29:17;2.58;;;1.10;;
47589;SDS011;33316;52.298;9.056;2023-06-14T06:31:45;2.70;;;1.00;;
47589;SDS011;33316;52.298;9.056;2023-06-14T06:34:12;3.08;;;0.80;;
47589;SDS011;33316;52.298;9.056;2023-06-14T06:36:38;2.65;;;0.90;;
47589;SDS011;33316;52.298;9.056;2023-06-14T06:39:05;1.33;;;0.70;;
47589;SDS011;33316;52.298;9.056;2023-06-14T06:41:35;3.15;;;1.20;;
47589;SDS011;33316;52.298;9.056;2023-06-14T06:44:03;4.88;;;1.02;;
47589;SDS011;33316;52.298;9.056;2023-06-14T06:46:29;1.00;;;0.70;;
47589;SDS011;33316;52.298;9.056;2023-06-14T06:48:58;1.83;;;1.08;;
47589;SDS011;33316;52.298;9.056;2023-06-14T06:51:25;1.40;;;0.77;;
47589;SDS011;33316;52.298;9.056;2023-06-14T06:53:52;1.60;;;1.10;;
47589;SDS011;33316;52.298;9.056;2023-06-14T06:56:19;2.90;;;0.90;;
47589;SDS011;33316;52.298;9.056;2023-06-14T06:58:48;1.55;;;0.80;;
47589;SDS011;33316;52.298;9.056;2023-06-14T07:01:14;2.58;;;0.95;;
47589;SDS011;33316;52.298;9.056;2023-06-14T07:03:41;2.17;;;0.90;;
47589;SDS011;33316;52.298;9.056;2023-06-14T07:06:09;2.00;;;1.10;;
47589;SDS011;33316;52.298;9.056;2023-06-14T07:08:36;1.65;;;0.73;;
47589;SDS011;33316;52.298;9.056;2023-06-14T07:11:04;8.23;;;1.25;;
47589;SDS011;33316;52.298;9.056;2023-06-14T07:13:32;1.20;;;0.82;;
47589;SDS011;33316;52.298;9.056;2023-06-14T07:15:59;1.55;;;0.65;;
47589;SDS011;33316;52.298;9.056;2023-06-14T07:18:30;1.67;;;0.90;;
47589;SDS011;33316;52.298;9.056;2023-06-14T07:20:57;1.30;;;0.70;;
47589;SDS011;33316;52.298;9.056;2023-06-14T07:23:28;1.42;;;0.50;;
47589;SDS011;33316;52.298;9.056;2023-06-14T07:25:57;2.90;;;1.02;;
47589;SDS011;33316;52.298;9.056;2023-06-14T07:28:24;1.65;;;0.60;;
47589;SDS011;33316;52.298;9.056;2023-06-14T07:30:51;1.60;;;0.82;;
47589;SDS011;33316;52.298;9.056;2023-06-14T07:33:17;1.38;;;0.70;;
47589;SDS011;33316;52.298;9.056;2023-06-14T07:35:44;1.90;;;0.88;;
47589;SDS011;33316;52.298;9.056;2023-06-14T07:38:13;3.10;;;0.60;;
47589;SDS011;33316;52.298;9.056;2023-06-14T07:40:41;1.17;;;0.80;;
47589;SDS011;33316;52.298;9.056;2023-06-14T07:43:07;2.63;;;1.05;;
47589;SDS011;33316;52.298;9.056;2023-06-14T07:45:34;0.98;;;0.60;;
47589;SDS011;33316;52.298;9.056;2023-06-14T07:48:01;1.50;;;0.82;;
47589;SDS011;33316;52.298;9.056;2023-06-14T07:50:30;1.52;;;1.00;;
47589;SDS011;33316;52.298;9.056;2023-06-14T07:52:57;1.60;;;0.70;;
47589;SDS011;33316;52.298;9.056;2023-06-14T07:55:24;1.13;;;0.70;;
47589;SDS011;33316;52.298;9.056;2023-06-14T07:57:53;1.67;;;0.93;;
47589;SDS011;33316;52.298;9.056;2023-06-14T08:00:20;1.58;;;0.70;;
47589;SDS011;33316;52.298;9.056;2023-06-14T08:02:46;1.70;;;0.70;;
47589;SDS011;33316;52.298;9.056;2023-06-14T08:05:13;1.00;;;0.70;;
47589;SDS011;33316;52.298;9.056;2023-06-14T08:07:40;1.70;;;0.80;;
47589;SDS011;33316;52.298;9.056;2023-06-14T08:10:07;0.90;;;0.80;;
47589;SDS011;33316;52.298;9.056;2023-06-14T08:12:34;1.58;;;0.80;;
47589;SDS011;33316;52.298;9.056;2023-06-14T08:15:04;1.13;;;0.80;;
47589;SDS011;33316;52.298;9.056;2023-06-14T08:17:32;1.15;;;0.60;;
47589;SDS011;33316;52.298;9.056;2023-06-14T08:19:59;1.40;;;0.80;;
47589;SDS011;33316;52.298;9.056;2023-06-14T08:22:26;1.58;;;0.93;;
47589;SDS011;33316;52.298;9.056;2023-06-14T08:24:56;1.55;;;0.65;;
47589;SDS011;33316;52.298;9.056;2023-06-14T08:27:23;0.70;;;0.60;;
47589;SDS011;33316;52.298;9.056;2023-06-14T08:29:50;2.28;;;0.90;;
47589;SDS011;33316;52.298;9.056;2023-06-14T08:32:18;1.58;;;1.10;;
47589;SDS011;33316;52.298;9.056;2023-06-14T08:34:45;1.05;;;0.60;;
47589;SDS011;33316;52.298;9.056;2023-06-14T08:37:11;2.13;;;0.75;;
47589;SDS011;33316;52.298;9.056;2023-06-14T08:39:38;1.70;;;0.73;;
47589;SDS011;33316;52.298;9.056;2023-06-14T08:42:05;2.03;;;0.82;;
47589;SDS011;33316;52.298;9.056;2023-06-14T08:44:35;1.38;;;0.70;;
47589;SDS011;33316;52.298;9.056;2023-06-14T08:47:02;0.73;;;0.52;;
47589;SDS011;33316;52.298;9.056;2023-06-14T08:49:30;1.10;;;0.60;;
47589;SDS011;33316;52.298;9.056;2023-06-14T08:52:00;0.68;;;0.50;;
47589;SDS011;33316;52.298;9.056;2023-06-14T08:54:28;3.00;;;0.90;;
47589;SDS011;33316;52.298;9.056;2023-06-14T08:56:57;2.63;;;0.90;;
47589;SDS011;33316;52.298;9.056;2023-06-14T08:59:25;3.10;;;1.00;;
47589;SDS011;33316;52.298;9.056;2023-06-14T09:01:56;5.00;;;0.90;;
47589;SDS011;33316;52.298;9.056;2023-06-14T09:04:23;1.42;;;0.90;;
47589;SDS011;33316;52.298;9.056;2023-06-14T09:06:56;1.27;;;0.90;;
47589;SDS011;33316;52.298;9.056;2023-06-14T09:09:23;1.75;;;0.80;;
47589;SDS011;33316;52.298;9.056;2023-06-14T09:11:51;3.20;;;0.90;;
47589;SDS011;33316;52.298;9.056;2023-06-14T09:14:18;1.75;;;0.88;;
47589;SDS011;33316;52.298;9.056;2023-06-14T09:16:45;1.33;;;0.80;;
47589;SDS011;33316;52.298;9.056;2023-06-14T09:19:13;2.67;;;0.90;;
47589;SDS011;33316;52.298;9.056;2023-06-14T09:21:47;1.40;;;0.80;;
47589;SDS011;33316;52.298;9.056;2023-06-14T09:24:15;1.70;;;0.60;;
47589;SDS011;33316;52.298;9.056;2023-06-14T09:26:42;4.25;;;0.90;;
47589;SDS011;33316;52.298;9.056;2023-06-14T09:29:09;4.50;;;0.65;;
47589;SDS011;33316;52.298;9.056;2023-06-14T09:31:35;1.98;;;0.47;;
47589;SDS011;33316;52.298;9.056;2023-06-14T09:34:02;2.60;;;0.75;;
47589;SDS011;33316;52.298;9.056;2023-06-14T09:36:30;1.10;;;0.55;;
47589;SDS011;33316;52.298;9.056;2023-06-14T09:38:58;1.05;;;0.60;;
47589;SDS011;33316;52.298;9.056;2023-06-14T09:41:33;0.98;;;0.60;;
47589;SDS011;33316;52.298;9.056;2023-06-14T09:44:01;0.75;;;0.50;;
47589;SDS011;33316;52.298;9.056;2023-06-14T09:46:29;1.17;;;0.90;;
47589;SDS011;33316;52.298;9.056;2023-06-14T09:48:56;0.77;;;0.60;;
47589;SDS011;33316;52.298;9.056;2023-06-14T09:51:24;0.80;;;0.50;;
47589;SDS011;33316;52.298;9.056;2023-06-14T09:53:55;1.10;;;0.70;;
47589;SDS011;33316;52.298;9.056;2023-06-14T09:56:30;1.45;;;0.65;;
47589;SDS011;33316;52.298;9.056;2023-06-14T09:59:04;0.50;;;0.40;;
47589;SDS011;33316;52.298;9.056;2023-06-14T10:01:32;1.10;;;0.60;;
47589;SDS011;33316;52.298;9.056;2023-06-14T10:04:01;1.27;;;0.70;;
47589;SDS011;33316;52.298;9.056;2023-06-14T10:06:30;1.08;;;0.70;;
47589;SDS011;33316;52.298;9.056;2023-06-14T10:08:58;1.75;;;0.73;;
47589;SDS011;33316;52.298;9.056;2023-06-14T10:11:26;1.63;;;0.77;;
47589;SDS011;33316;52.298;9.056;2023-06-14T10:13:54;1.33;;;0.80;;
47589;SDS011;33316;52.298;9.056;2023-06-14T10:16:23;0.98;;;0.60;;
47589;SDS011;33316;52.298;9.056;2023-06-14T10:18:59;1.20;;;0.63;;
47589;SDS011;33316;52.298;9.056;2023-06-14T10:21:32;2.75;;;1.10;;
47589;SDS011;33316;52.298;9.056;2023-06-14T10:24:04;3.60;;;0.80;;
47589;SDS011;33316;52.298;9.056;2023-06-14T10:26:34;1.17;;;0.60;;
47589;SDS011;33316;52.298;9.056;2023-06-14T10:29:07;0.90;;;0.65;;
47589;SDS011;33316;52.298;9.056;2023-06-14T10:31:41;1.38;;;0.60;;
47589;SDS011;33316;52.298;9.056;2023-06-14T10:34:09;1.98;;;1.10;;
47589;SDS011;33316;52.298;9.056;2023-06-14T10:36:37;1.58;;;1.00;;
47589;SDS011;33316;52.298;9.056;2023-06-14T10:39:10;2.47;;;1.13;;
47589;SDS011;33316;52.298;9.056;2023-06-14T10:41:41;1.70;;;0.93;;
47589;SDS011;33316;52.298;9.056;2023-06-14T10:47:10;0.98;;;0.68;;
47589;SDS011;33316;52.298;9.056;2023-06-14T10:49:50;3.80;;;0.98;;
47589;SDS011;33316;52.298;9.056;2023-06-14T10:52:20;2.38;;;0.77;;
47589;SDS011;33316;52.298;9.056;2023-06-14T10:57:44;2.58;;;1.20;;
47589;SDS011;33316;52.298;9.056;2023-06-14T11:00:14;0.98;;;0.70;;
47589;SDS011;33316;52.298;9.056;2023-06-14T11:05:56;1.60;;;1.10;;
47589;SDS011;33316;52.298;9.056;2023-06-14T11:08:39;1.08;;;0.85;;
47589;SDS011;33316;52.298;9.056;2023-06-14T11:11:22;2.60;;;0.90;;
47589;SDS011;33316;52.298;9.056;2023-06-14T11:13:55;1.40;;;0.80;;
47589;SDS011;33316;52.298;9.056;2023-06-14T11:16:25;1.77;;;0.73;;
47589;SDS011;33316;52.298;9.056;2023-06-14T11:18:52;1.25;;;0.80;;
47589;SDS011;33316;52.298;9.056;2023-06-14T11:21:19;1.55;;;0.90;;
47589;SDS011;33316;52.298;9.056;2023-06-14T11:23:49;0.90;;;0.60;;
47589;SDS011;33316;52.298;9.056;2023-06-14T11:26:24;1.67;;;0.90;;
47589;SDS011;33316;52.298;9.056;2023-06-14T11:28:54;2.40;;;1.05;;
47589;SDS011;33316;52.298;9.056;2023-06-14T11:31:23;1.83;;;1.05;;
47589;SDS011;33316;52.298;9.056;2023-06-14T11:33:49;1.48;;;0.77;;
47589;SDS011;33316;52.298;9.056;2023-06-14T11:36:16;2.65;;;0.90;;
47589;SDS011;33316;52.298;9.056;2023-06-14T11:38:43;3.15;;;1.20;;
47589;SDS011;33316;52.298;9.056;2023-06-14T11:41:10;2.35;;;1.27;;
47589;SDS011;33316;52.298;9.056;2023-06-14T11:43:36;1.90;;;0.68;;
47589;SDS011;33316;52.298;9.056;2023-06-14T11:46:03;1.90;;;0.90;;
47589;SDS011;33316;52.298;9.056;2023-06-14T11:48:38;1.92;;;0.88;;
47589;SDS011;33316;52.298;9.056;2023-06-14T11:51:07;2.67;;;1.10;;
47589;SDS011;33316;52.298;9.056;2023-06-14T11:53:34;1.38;;;0.90;;
47589;SDS011;33316;52.298;9.056;2023-06-14T11:56:01;6.00;;;1.00;;
47589;SDS011;33316;52.298;9.056;2023-06-14T11:58:28;1.98;;;0.90;;
47589;SDS011;33316;52.298;9.056;2023-06-14T12:00:55;2.97;;;1.33;;
47589;SDS011;33316;52.298;9.056;2023-06-14T12:03:23;2.08;;;0.80;;
47589;SDS011;33316;52.298;9.056;2023-06-14T12:05:52;2.78;;;0.93;;
47589;SDS011;33316;52.298;9.056;2023-06-14T12:08:31;2.80;;;1.20;;
47589;SDS011;33316;52.298;9.056;2023-06-14T12:11:03;1.00;;;0.80;;
47589;SDS011;33316;52.298;9.056;2023-06-14T12:13:30;1.00;;;0.68;;
47589;SDS011;33316;52.298;9.056;2023-06-14T12:15:57;2.63;;;0.80;;
47589;SDS011;33316;52.298;9.056;2023-06-14T12:18:31;2.75;;;1.02;;
47589;SDS011;33316;52.298;9.056;2023-06-14T12:21:00;1.38;;;0.90;;
47589;SDS011;33316;52.298;9.056;2023-06-14T12:23:38;1.33;;;0.70;;
47589;SDS011;33316;52.298;9.056;2023-06-14T12:26:05;1.15;;;0.68;;
47589;SDS011;33316;52.298;9.056;2023-06-14T12:28:32;2.20;;;1.10;;
47589;SDS011;33316;52.298;9.056;2023-06-14T12:30:59;2.17;;;1.20;;
47589;SDS011;33316;52.298;9.056;2023-06-14T12:33:26;3.70;;;1.05;;
47589;SDS011;33316;52.298;9.056;2023-06-14T12:35:54;0.98;;;0.80;;
47589;SDS011;33316;52.298;9.056;2023-06-14T12:38:23;1.65;;;0.90;;
47589;SDS011;33316;52.298;9.056;2023-06-14T12:40:50;3.42;;;1.05;;
47589;SDS011;33316;52.298;9.056;2023-06-14T12:43:17;2.08;;;1.10;;
47589;SDS011;33316;52.298;9.056;2023-06-14T12:45:44;1.50;;;0.90;;
47589;SDS011;33316;52.298;9.056;2023-06-14T12:48:11;1.27;;;0.98;;
47589;SDS011;33316;52.298;9.056;2023-06-14T12:50:37;2.88;;;0.90;;
47589;SDS011;33316;52.298;9.056;2023-06-14T12:53:04;2.03;;;0.93;;
47589;SDS011;33316;52.298;9.056;2023-06-14T12:55:32;1.70;;;0.85;;
47589;SDS011;33316;52.298;9.056;2023-06-14T12:57:59;1.88;;;1.13;;
47589;SDS011;33316;52.298;9.056;2023-06-14T13:00:25;1.35;;;0.90;;
47589;SDS011;33316;52.298;9.056;2023-06-14T13:02:52;2.38;;;1.20;;
47589;SDS011;33316;52.298;9.056;2023-06-14T13:05:19;2.95;;;1.00;;
47589;SDS011;33316;52.298;9.056;2023-06-14T13:07:45;2.38;;;1.10;;
47589;SDS011;33316;52.298;9.056;2023-06-14T13:10:12;1.63;;;1.10;;
47589;SDS011;33316;52.298;9.056;2023-06-14T13:12:40;1.05;;;0.82;;
47589;SDS011;33316;52.298;9.056;2023-06-14T13:15:07;1.33;;;0.88;;
47589;SDS011;33316;52.298;9.056;2023-06-14T13:17:34;1.75;;;1.20;;
47589;SDS011;33316;52.298;9.056;2023-06-14T13:20:03;1.80;;;1.08;;
47589;SDS011;33316;52.298;9.056;2023-06-14T13:22:31;1.95;;;1.20;;
47589;SDS011;33316;52.298;9.056;2023-06-14T13:24:58;1.27;;;0.90;;
47589;SDS011;33316;52.298;9.056;2023-06-14T13:27:25;2.08;;;1.23;;
47589;SDS011;33316;52.298;9.056;2023-06-14T13:29:53;2.13;;;1.05;;
47589;SDS011;33316;52.298;9.056;2023-06-14T13:32:20;3.45;;;1.10;;
47589;SDS011;33316;52.298;9.056;2023-06-14T13:34:47;3.05;;;1.10;;
47589;SDS011;33316;52.298;9.056;2023-06-14T13:37:14;2.17;;;0.90;;
47589;SDS011;33316;52.298;9.056;2023-06-14T13:39:41;1.88;;;0.82;;
47589;SDS011;33316;52.298;9.056;2023-06-14T13:42:08;2.58;;;1.30;;
47589;SDS011;33316;52.298;9.056;2023-06-14T13:44:36;1.70;;;1.02;;
47589;SDS011;33316;52.298;9.056;2023-06-14T13:47:05;3.22;;;1.13;;
47589;SDS011;33316;52.298;9.056;2023-06-14T13:49:32;3.83;;;1.35;;
47589;SDS011;33316;52.298;9.056;2023-06-14T13:52:00;3.38;;;1.60;;
47589;SDS011;33316;52.298;9.056;2023-06-14T13:54:26;2.67;;;1.13;;
47589;SDS011;33316;52.298;9.056;2023-06-14T13:56:53;6.78;;;1.40;;
47589;SDS011;33316;52.298;9.056;2023-06-14T13:59:20;3.55;;;1.30;;
47589;SDS011;33316;52.298;9.056;2023-06-14T14:01:47;1.58;;;1.10;;
47589;SDS011;33316;52.298;9.056;2023-06-14T14:04:15;2.67;;;1.40;;
47589;SDS011;33316;52.298;9.056;2023-06-14T14:06:41;3.17;;;1.80;;
47589;SDS011;33316;52.298;9.056;2023-06-14T14:09:08;3.08;;;1.20;;
47589;SDS011;33316;52.298;9.056;2023-06-14T14:11:35;3.78;;;1.30;;
47589;SDS011;33316;52.298;9.056;2023-06-14T14:14:01;3.22;;;1.45;;
47589;SDS011;33316;52.298;9.056;2023-06-14T14:16:29;2.75;;;1.55;;
47589;SDS011;33316;52.298;9.056;2023-06-14T14:18:56;3.50;;;1.35;;
47589;SDS011;33316;52.298;9.056;2023-06-14T14:21:24;1.67;;;1.20;;
47589;SDS011;33316;52.298;9.056;2023-06-14T14:23:51;2.45;;;1.35;;
47589;SDS011;33316;52.298;9.056;2023-06-14T14:26:18;3.83;;;1.38;;
47589;SDS011;33316;52.298;9.056;2023-06-14T14:28:45;1.80;;;1.50;;
47589;SDS011;33316;52.298;9.056;2023-06-14T14:31:12;2.97;;;1.52;;
47589;SDS011;33316;52.298;9.056;2023-06-14T14:33:38;2.40;;;1.15;;
47589;SDS011;33316;52.298;9.056;2023-06-14T14:36:05;2.03;;;1.10;;
47589;SDS011;33316;52.298;9.056;2023-06-14T14:38:34;2.50;;;1.40;;
47589;SDS011;33316;52.298;9.056;2023-06-14T14:41:00;3.47;;;1.50;;
47589;SDS011;33316;52.298;9.056;2023-06-14T14:43:27;2.55;;;1.40;;
47589;SDS011;33316;52.298;9.056;2023-06-14T14:45:55;2.67;;;1.65;;
47589;SDS011;33316;52.298;9.056;2023-06-14T14:48:22;5.05;;;1.40;;
47589;SDS011;33316;52.298;9.056;2023-06-14T14:50:49;6.45;;;1.38;;
47589;SDS011;33316;52.298;9.056;2023-06-14T14:53:15;3.17;;;1.27;;
47589;SDS011;33316;52.298;9.056;2023-06-14T14:55:43;2.80;;;1.50;;
47589;SDS011;33316;52.298;9.056;2023-06-14T14:58:11;2.30;;;1.33;;
47589;SDS011;33316;52.298;9.056;2023-06-14T15:00:41;2.25;;;1.40;;
47589;SDS011;33316;52.298;9.056;2023-06-14T15:03:08;3.92;;;1.80;;